Mt Bachelor previous 24hr weather report

For range Mar 28 2015 5:24 AM PDT to Mar 29 2015 5:24 AM PDT.

Date and time 6300' Base Temp 7800' Pine Temp 8000' Northwest Temp 9000' Summit Temp Base RH Pine RH Summit RH Pine Wind Avg Pine Wind Max Pine Wind Dir Northwest Wind Avg Northwest Wind Max Northwest Wind Dir Summit Wind Avg Summit Wind Max Summit Wind Dir Snowdepth
Mar 29 2015 5:00 AM PDT 28.56 34.12 n/a 29.32 85 41 62 11 17 150 n/a n/a n/a 30 32 105 45
Mar 29 2015 4:00 AM PDT 27.91 34.12 n/a 29.11 90 52 58 11 15 142 n/a n/a n/a 29 33 105 45
Mar 29 2015 3:00 AM PDT 27.89 33.99 n/a 29.01 88 62 62 14 21 145 n/a n/a n/a 37 42 105 45
Mar 29 2015 2:00 AM PDT 27.85 34.29 n/a 29.74 91 60 74 17 22 123 n/a n/a n/a 14 27 105 45
Mar 29 2015 1:00 AM PDT 28.07 35.26 n/a 30.3 91 57 71 17 24 129 n/a n/a n/a 6 22 105 45
Mar 29 2015 12:00 AM PDT ? 35.13 n/a 31.23 95 45 58 15 21 130 n/a n/a n/a 8 16 105 45
Mar 28 2015 11:00 PM PDT 27.74 34.46 n/a 31.33 96 50 60 15 19 128 n/a n/a n/a 5 12 105 45
Mar 28 2015 10:00 PM PDT 28.36 35.1 n/a 32.68 97 51 60 11 14 129 n/a n/a n/a 3 11 105 45
Mar 28 2015 9:00 PM PDT 28.98 34.69 n/a 31.24 96 55 61 12 17 144 n/a n/a n/a 1 5 105 45
Mar 28 2015 8:00 PM PDT 31.32 33.71 n/a 32.32 91 58 62 12 15 128 n/a n/a n/a 9 13 105 45
Mar 28 2015 7:00 PM PDT 35.37 34.13 n/a 34.07 83 61 62 11 16 130 n/a n/a n/a 4 5 105 45
Mar 28 2015 6:00 PM PDT 38.45 34.97 n/a 32.21 74 65 62 0 4 128 n/a n/a n/a 9 13 105 45
Mar 28 2015 5:00 PM PDT 40.89 36.62 n/a 32.26 62 52 66 1 3 140 n/a n/a n/a 1 4 105 44
Mar 28 2015 4:00 PM PDT 38.47 36.21 n/a 34.65 69 52 49 4 9 135 n/a n/a n/a 14 15 105 44
Mar 28 2015 3:00 PM PDT 38.41 29.69 n/a 33.17 87 59 47 0 1 123 n/a n/a n/a 16 19 105 44
Mar 28 2015 2:00 PM PDT 35.36 28.35 n/a 30.6 74 55 47 3 6 147 n/a n/a n/a 17 21 105 44
Mar 28 2015 1:00 PM PDT 34.48 26.82 n/a 28.25 87 92 42 7 10 124 n/a n/a n/a 26 30 105 44
Mar 28 2015 12:00 PM PDT 30.37 23.9 n/a 25.91 90 94 44 6 11 121 n/a n/a n/a 24 31 105 44
Mar 28 2015 11:00 AM PDT 27.78 25.21 n/a 21.59 95 93 58 11 18 149 n/a n/a n/a 30 41 105 45
Mar 28 2015 10:00 AM PDT 26.83 23.42 n/a 21.76 94 95 81 16 22 145 n/a n/a n/a 43 52 105 46
Mar 28 2015 9:00 AM PDT 24.81 22.33 n/a 21.86 97 94 76 21 26 166 n/a n/a n/a 52 62 105 46
Mar 28 2015 8:00 AM PDT 24.61 21.51 n/a 19.78 99 95 90 20 29 155 n/a n/a n/a 58 66 105 45
Mar 28 2015 7:00 AM PDT 24.31 21.96 n/a 18.65 98 94 95 26 37 163 n/a n/a n/a 63 71 105 45
Mar 28 2015 6:00 AM PDT 24.9 22.89 n/a 19.18 99 95 95 26 35 154 n/a n/a n/a 60 63 105 45